sensor_id;sensor_type;location;lat;lon;timestamp;P1;durP1;ratioP1;P2;durP2;ratioP2
47153;SDS011;32907;41.412;2.164;2024-02-04T00:01:43;17.52;;;11.95;;
47153;SDS011;32907;41.412;2.164;2024-02-04T00:04:11;16.33;;;11.82;;
47153;SDS011;32907;41.412;2.164;2024-02-04T00:06:39;17.98;;;11.77;;
47153;SDS011;32907;41.412;2.164;2024-02-04T00:09:08;19.40;;;11.20;;
47153;SDS011;32907;41.412;2.164;2024-02-04T00:11:36;18.23;;;11.02;;
47153;SDS011;32907;41.412;2.164;2024-02-04T00:14:04;16.27;;;11.38;;
47153;SDS011;32907;41.412;2.164;2024-02-04T00:16:33;14.60;;;10.65;;
47153;SDS011;32907;41.412;2.164;2024-02-04T00:19:01;16.00;;;11.27;;
47153;SDS011;32907;41.412;2.164;2024-02-04T00:21:30;17.80;;;11.48;;
47153;SDS011;32907;41.412;2.164;2024-02-04T00:23:58;14.45;;;10.63;;
47153;SDS011;32907;41.412;2.164;2024-02-04T00:26:27;15.63;;;9.90;;
47153;SDS011;32907;41.412;2.164;2024-02-04T00:28:55;15.98;;;10.25;;
47153;SDS011;32907;41.412;2.164;2024-02-04T00:31:23;14.20;;;9.80;;
47153;SDS011;32907;41.412;2.164;2024-02-04T00:33:51;16.33;;;10.23;;
47153;SDS011;32907;41.412;2.164;2024-02-04T00:36:20;15.98;;;10.18;;
47153;SDS011;32907;41.412;2.164;2024-02-04T00:38:49;15.32;;;9.48;;
47153;SDS011;32907;41.412;2.164;2024-02-04T00:41:17;14.63;;;9.43;;
47153;SDS011;32907;41.412;2.164;2024-02-04T00:43:45;19.67;;;10.27;;
47153;SDS011;32907;41.412;2.164;2024-02-04T00:46:14;14.05;;;9.35;;
47153;SDS011;32907;41.412;2.164;2024-02-04T00:48:42;13.52;;;9.13;;
47153;SDS011;32907;41.412;2.164;2024-02-04T00:51:10;17.05;;;12.10;;
47153;SDS011;32907;41.412;2.164;2024-02-04T00:53:40;27.85;;;15.15;;
47153;SDS011;32907;41.412;2.164;2024-02-04T00:56:09;17.88;;;13.57;;
47153;SDS011;32907;41.412;2.164;2024-02-04T00:58:38;20.45;;;13.40;;
47153;SDS011;32907;41.412;2.164;2024-02-04T01:01:06;16.33;;;11.07;;
47153;SDS011;32907;41.412;2.164;2024-02-04T01:03:35;14.82;;;10.68;;
47153;SDS011;32907;41.412;2.164;2024-02-04T01:06:03;13.50;;;9.63;;
47153;SDS011;32907;41.412;2.164;2024-02-04T01:08:32;14.48;;;9.63;;
47153;SDS011;32907;41.412;2.164;2024-02-04T01:11:02;13.68;;;8.55;;
47153;SDS011;32907;41.412;2.164;2024-02-04T01:13:31;12.35;;;9.00;;
47153;SDS011;32907;41.412;2.164;2024-02-04T01:15:59;12.75;;;8.65;;
47153;SDS011;32907;41.412;2.164;2024-02-04T01:18:28;12.38;;;8.63;;
47153;SDS011;32907;41.412;2.164;2024-02-04T01:20:58;15.75;;;10.10;;
47153;SDS011;32907;41.412;2.164;2024-02-04T01:23:28;15.30;;;9.90;;
47153;SDS011;32907;41.412;2.164;2024-02-04T01:25:57;15.00;;;9.02;;
47153;SDS011;32907;41.412;2.164;2024-02-04T01:28:25;13.48;;;8.88;;
47153;SDS011;32907;41.412;2.164;2024-02-04T01:30:54;12.50;;;8.57;;
47153;SDS011;32907;41.412;2.164;2024-02-04T01:33:22;13.25;;;8.43;;
47153;SDS011;32907;41.412;2.164;2024-02-04T01:35:51;11.93;;;8.35;;
47153;SDS011;32907;41.412;2.164;2024-02-04T01:38:20;14.68;;;7.95;;
47153;SDS011;32907;41.412;2.164;2024-02-04T01:40:49;12.55;;;8.73;;
47153;SDS011;32907;41.412;2.164;2024-02-04T01:43:20;12.23;;;8.68;;
47153;SDS011;32907;41.412;2.164;2024-02-04T01:45:51;12.73;;;9.02;;
47153;SDS011;32907;41.412;2.164;2024-02-04T01:48:20;12.95;;;8.25;;
47153;SDS011;32907;41.412;2.164;2024-02-04T01:50:50;13.93;;;8.18;;
47153;SDS011;32907;41.412;2.164;2024-02-04T01:53:21;13.00;;;7.88;;
47153;SDS011;32907;41.412;2.164;2024-02-04T01:55:51;13.25;;;8.45;;
47153;SDS011;32907;41.412;2.164;2024-02-04T01:58:19;13.50;;;7.82;;
47153;SDS011;32907;41.412;2.164;2024-02-04T02:00:48;10.73;;;7.25;;
47153;SDS011;32907;41.412;2.164;2024-02-04T02:03:17;12.23;;;7.82;;
47153;SDS011;32907;41.412;2.164;2024-02-04T02:05:47;11.95;;;7.65;;
47153;SDS011;32907;41.412;2.164;2024-02-04T02:08:16;10.63;;;7.45;;
47153;SDS011;32907;41.412;2.164;2024-02-04T02:10:44;10.65;;;7.20;;
47153;SDS011;32907;41.412;2.164;2024-02-04T02:13:16;11.40;;;7.63;;
47153;SDS011;32907;41.412;2.164;2024-02-04T02:15:51;11.50;;;6.88;;
47153;SDS011;32907;41.412;2.164;2024-02-04T02:18:27;10.23;;;6.72;;
47153;SDS011;32907;41.412;2.164;2024-02-04T02:24:12;9.55;;;6.10;;
47153;SDS011;32907;41.412;2.164;2024-02-04T02:26:45;10.93;;;7.05;;
47153;SDS011;32907;41.412;2.164;2024-02-04T02:29:14;10.35;;;6.97;;
47153;SDS011;32907;41.412;2.164;2024-02-04T02:31:42;13.18;;;7.22;;
47153;SDS011;32907;41.412;2.164;2024-02-04T02:34:15;10.63;;;7.10;;
47153;SDS011;32907;41.412;2.164;2024-02-04T02:37:21;11.50;;;6.57;;
47153;SDS011;32907;41.412;2.164;2024-02-04T02:42:44;11.77;;;6.95;;
47153;SDS011;32907;41.412;2.164;2024-02-04T02:45:15;12.70;;;7.00;;
47153;SDS011;32907;41.412;2.164;2024-02-04T02:47:44;11.50;;;7.18;;
47153;SDS011;32907;41.412;2.164;2024-02-04T02:50:15;10.57;;;7.15;;
47153;SDS011;32907;41.412;2.164;2024-02-04T02:52:44;11.82;;;6.97;;
47153;SDS011;32907;41.412;2.164;2024-02-04T02:55:12;9.93;;;6.50;;
47153;SDS011;32907;41.412;2.164;2024-02-04T02:57:40;10.35;;;7.43;;
47153;SDS011;32907;41.412;2.164;2024-02-04T03:00:10;10.95;;;7.72;;
47153;SDS011;32907;41.412;2.164;2024-02-04T03:02:38;11.70;;;7.32;;
47153;SDS011;32907;41.412;2.164;2024-02-04T03:05:07;11.60;;;7.78;;
47153;SDS011;32907;41.412;2.164;2024-02-04T03:07:35;11.95;;;8.20;;
47153;SDS011;32907;41.412;2.164;2024-02-04T03:10:03;12.52;;;7.35;;
47153;SDS011;32907;41.412;2.164;2024-02-04T03:12:32;11.52;;;7.18;;
47153;SDS011;32907;41.412;2.164;2024-02-04T03:15:00;12.82;;;8.25;;
47153;SDS011;32907;41.412;2.164;2024-02-04T03:17:29;11.30;;;7.05;;
47153;SDS011;32907;41.412;2.164;2024-02-04T03:19:57;11.55;;;7.72;;
47153;SDS011;32907;41.412;2.164;2024-02-04T03:22:25;12.43;;;7.80;;
47153;SDS011;32907;41.412;2.164;2024-02-04T03:24:54;10.73;;;6.65;;
47153;SDS011;32907;41.412;2.164;2024-02-04T03:27:22;10.23;;;6.22;;
47153;SDS011;32907;41.412;2.164;2024-02-04T03:29:50;9.10;;;6.68;;
47153;SDS011;32907;41.412;2.164;2024-02-04T03:32:18;9.07;;;6.32;;
47153;SDS011;32907;41.412;2.164;2024-02-04T03:34:47;8.55;;;5.43;;
47153;SDS011;32907;41.412;2.164;2024-02-04T03:37:15;12.43;;;6.55;;
47153;SDS011;32907;41.412;2.164;2024-02-04T03:39:44;8.55;;;6.28;;
47153;SDS011;32907;41.412;2.164;2024-02-04T03:42:12;9.38;;;5.50;;
47153;SDS011;32907;41.412;2.164;2024-02-04T03:44:41;8.38;;;6.00;;
47153;SDS011;32907;41.412;2.164;2024-02-04T03:47:09;10.60;;;6.13;;
47153;SDS011;32907;41.412;2.164;2024-02-04T03:49:37;9.95;;;6.32;;
47153;SDS011;32907;41.412;2.164;2024-02-04T03:52:06;8.10;;;5.25;;
47153;SDS011;32907;41.412;2.164;2024-02-04T03:54:34;12.15;;;6.03;;
47153;SDS011;32907;41.412;2.164;2024-02-04T03:57:02;8.55;;;5.70;;
47153;SDS011;32907;41.412;2.164;2024-02-04T03:59:31;9.02;;;6.05;;
47153;SDS011;32907;41.412;2.164;2024-02-04T04:01:59;9.32;;;5.97;;
47153;SDS011;32907;41.412;2.164;2024-02-04T04:04:27;7.47;;;5.10;;
47153;SDS011;32907;41.412;2.164;2024-02-04T04:06:56;10.48;;;5.85;;
47153;SDS011;32907;41.412;2.164;2024-02-04T04:09:24;8.82;;;5.07;;
47153;SDS011;32907;41.412;2.164;2024-02-04T04:11:53;7.30;;;5.57;;
47153;SDS011;32907;41.412;2.164;2024-02-04T04:14:21;10.57;;;5.90;;
47153;SDS011;32907;41.412;2.164;2024-02-04T04:16:49;8.77;;;5.30;;
47153;SDS011;32907;41.412;2.164;2024-02-04T04:19:17;8.68;;;5.38;;
47153;SDS011;32907;41.412;2.164;2024-02-04T04:21:45;8.48;;;5.30;;
47153;SDS011;32907;41.412;2.164;2024-02-04T04:24:14;6.68;;;5.28;;
47153;SDS011;32907;41.412;2.164;2024-02-04T04:26:47;9.52;;;5.43;;
47153;SDS011;32907;41.412;2.164;2024-02-04T04:29:15;9.10;;;5.80;;
47153;SDS011;32907;41.412;2.164;2024-02-04T04:31:43;10.15;;;5.95;;
47153;SDS011;32907;41.412;2.164;2024-02-04T04:34:11;9.82;;;5.88;;
47153;SDS011;32907;41.412;2.164;2024-02-04T04:36:40;9.15;;;5.15;;
47153;SDS011;32907;41.412;2.164;2024-02-04T04:39:08;7.88;;;5.25;;
47153;SDS011;32907;41.412;2.164;2024-02-04T04:41:36;11.63;;;5.93;;
47153;SDS011;32907;41.412;2.164;2024-02-04T04:44:04;9.15;;;5.72;;
47153;SDS011;32907;41.412;2.164;2024-02-04T04:46:32;7.57;;;5.28;;
47153;SDS011;32907;41.412;2.164;2024-02-04T04:49:01;9.68;;;5.82;;
47153;SDS011;32907;41.412;2.164;2024-02-04T04:51:29;8.10;;;6.38;;
47153;SDS011;32907;41.412;2.164;2024-02-04T04:53:57;11.07;;;6.10;;
47153;SDS011;32907;41.412;2.164;2024-02-04T04:56:25;8.55;;;6.30;;
47153;SDS011;32907;41.412;2.164;2024-02-04T04:58:54;11.32;;;5.80;;
47153;SDS011;32907;41.412;2.164;2024-02-04T05:01:22;7.35;;;5.47;;
47153;SDS011;32907;41.412;2.164;2024-02-04T05:03:51;10.25;;;5.53;;
47153;SDS011;32907;41.412;2.164;2024-02-04T05:06:19;8.73;;;5.70;;
47153;SDS011;32907;41.412;2.164;2024-02-04T05:08:47;7.35;;;5.30;;
47153;SDS011;32907;41.412;2.164;2024-02-04T05:11:16;8.05;;;4.95;;
47153;SDS011;32907;41.412;2.164;2024-02-04T05:13:44;8.27;;;5.32;;
47153;SDS011;32907;41.412;2.164;2024-02-04T05:16:13;8.30;;;5.35;;
47153;SDS011;32907;41.412;2.164;2024-02-04T05:18:42;6.75;;;4.85;;
47153;SDS011;32907;41.412;2.164;2024-02-04T05:21:10;9.57;;;5.55;;
47153;SDS011;32907;41.412;2.164;2024-02-04T05:23:39;7.32;;;5.10;;
47153;SDS011;32907;41.412;2.164;2024-02-04T05:26:06;9.50;;;5.05;;
47153;SDS011;32907;41.412;2.164;2024-02-04T05:28:35;10.18;;;5.03;;
47153;SDS011;32907;41.412;2.164;2024-02-04T05:31:03;9.02;;;5.70;;
47153;SDS011;32907;41.412;2.164;2024-02-04T05:33:31;8.55;;;4.97;;
47153;SDS011;32907;41.412;2.164;2024-02-04T05:35:59;7.88;;;5.30;;
47153;SDS011;32907;41.412;2.164;2024-02-04T05:38:27;7.72;;;5.38;;
47153;SDS011;32907;41.412;2.164;2024-02-04T05:40:56;8.10;;;5.25;;
47153;SDS011;32907;41.412;2.164;2024-02-04T05:43:24;8.23;;;5.38;;
47153;SDS011;32907;41.412;2.164;2024-02-04T05:45:52;10.15;;;5.80;;
47153;SDS011;32907;41.412;2.164;2024-02-04T05:48:20;9.60;;;6.20;;
47153;SDS011;32907;41.412;2.164;2024-02-04T05:50:49;8.45;;;6.32;;
47153;SDS011;32907;41.412;2.164;2024-02-04T05:53:18;10.07;;;6.43;;
47153;SDS011;32907;41.412;2.164;2024-02-04T05:55:46;9.13;;;5.65;;
47153;SDS011;32907;41.412;2.164;2024-02-04T05:58:15;9.30;;;5.63;;
47153;SDS011;32907;41.412;2.164;2024-02-04T06:00:43;8.27;;;5.68;;
47153;SDS011;32907;41.412;2.164;2024-02-04T06:03:12;7.88;;;5.47;;
47153;SDS011;32907;41.412;2.164;2024-02-04T06:05:42;8.35;;;5.07;;
47153;SDS011;32907;41.412;2.164;2024-02-04T06:08:10;10.38;;;5.78;;
47153;SDS011;32907;41.412;2.164;2024-02-04T06:10:38;8.68;;;5.32;;
47153;SDS011;32907;41.412;2.164;2024-02-04T06:13:06;7.55;;;4.85;;
47153;SDS011;32907;41.412;2.164;2024-02-04T06:15:34;7.53;;;4.68;;
47153;SDS011;32907;41.412;2.164;2024-02-04T06:18:03;8.65;;;5.18;;
47153;SDS011;32907;41.412;2.164;2024-02-04T06:20:31;8.95;;;5.25;;
47153;SDS011;32907;41.412;2.164;2024-02-04T06:22:59;6.70;;;5.03;;
47153;SDS011;32907;41.412;2.164;2024-02-04T06:25:28;7.13;;;4.68;;
47153;SDS011;32907;41.412;2.164;2024-02-04T06:27:56;7.72;;;5.13;;
47153;SDS011;32907;41.412;2.164;2024-02-04T06:30:25;8.75;;;5.80;;
47153;SDS011;32907;41.412;2.164;2024-02-04T06:32:53;9.38;;;4.93;;
47153;SDS011;32907;41.412;2.164;2024-02-04T06:35:24;6.18;;;4.80;;
47153;SDS011;32907;41.412;2.164;2024-02-04T06:37:52;9.07;;;5.18;;
47153;SDS011;32907;41.412;2.164;2024-02-04T06:40:21;9.55;;;4.82;;
47153;SDS011;32907;41.412;2.164;2024-02-04T06:42:50;7.65;;;4.95;;
47153;SDS011;32907;41.412;2.164;2024-02-04T06:45:18;8.63;;;5.18;;
47153;SDS011;32907;41.412;2.164;2024-02-04T06:47:46;9.38;;;4.95;;
47153;SDS011;32907;41.412;2.164;2024-02-04T06:50:14;11.93;;;5.90;;
47153;SDS011;32907;41.412;2.164;2024-02-04T06:52:43;9.88;;;6.05;;
47153;SDS011;32907;41.412;2.164;2024-02-04T06:55:13;8.90;;;6.05;;
47153;SDS011;32907;41.412;2.164;2024-02-04T06:57:41;9.38;;;5.30;;
47153;SDS011;32907;41.412;2.164;2024-02-04T07:00:09;10.65;;;5.90;;
47153;SDS011;32907;41.412;2.164;2024-02-04T07:02:39;7.53;;;5.45;;
47153;SDS011;32907;41.412;2.164;2024-02-04T07:05:07;8.45;;;6.05;;
47153;SDS011;32907;41.412;2.164;2024-02-04T07:07:35;6.50;;;4.60;;
47153;SDS011;32907;41.412;2.164;2024-02-04T07:10:04;8.23;;;4.97;;
47153;SDS011;32907;41.412;2.164;2024-02-04T07:12:33;10.73;;;5.95;;
47153;SDS011;32907;41.412;2.164;2024-02-04T07:15:01;6.18;;;4.50;;
47153;SDS011;32907;41.412;2.164;2024-02-04T07:17:30;10.00;;;7.22;;
47153;SDS011;32907;41.412;2.164;2024-02-04T07:19:59;11.45;;;8.57;;
47153;SDS011;32907;41.412;2.164;2024-02-04T07:22:27;13.45;;;9.57;;
47153;SDS011;32907;41.412;2.164;2024-02-04T07:24:55;12.23;;;7.93;;
47153;SDS011;32907;41.412;2.164;2024-02-04T07:27:24;11.00;;;6.97;;
47153;SDS011;32907;41.412;2.164;2024-02-04T07:29:52;9.73;;;6.82;;
47153;SDS011;32907;41.412;2.164;2024-02-04T07:32:22;13.35;;;8.68;;
47153;SDS011;32907;41.412;2.164;2024-02-04T07:34:51;13.85;;;8.85;;
47153;SDS011;32907;41.412;2.164;2024-02-04T07:37:20;10.30;;;7.53;;
47153;SDS011;32907;41.412;2.164;2024-02-04T07:39:48;12.70;;;7.57;;
47153;SDS011;32907;41.412;2.164;2024-02-04T07:42:16;10.57;;;6.80;;
47153;SDS011;32907;41.412;2.164;2024-02-04T07:44:44;11.93;;;6.97;;
47153;SDS011;32907;41.412;2.164;2024-02-04T07:47:12;12.52;;;6.63;;
47153;SDS011;32907;41.412;2.164;2024-02-04T07:49:41;13.45;;;7.47;;
47153;SDS011;32907;41.412;2.164;2024-02-04T07:52:09;15.13;;;6.72;;
47153;SDS011;32907;41.412;2.164;2024-02-04T07:54:38;16.15;;;7.18;;
47153;SDS011;32907;41.412;2.164;2024-02-04T07:57:06;11.38;;;7.00;;
47153;SDS011;32907;41.412;2.164;2024-02-04T07:59:35;10.25;;;6.65;;
47153;SDS011;32907;41.412;2.164;2024-02-04T08:02:03;12.88;;;6.65;;
47153;SDS011;32907;41.412;2.164;2024-02-04T08:04:32;12.05;;;7.05;;
47153;SDS011;32907;41.412;2.164;2024-02-04T08:07:00;10.60;;;6.78;;
47153;SDS011;32907;41.412;2.164;2024-02-04T08:09:29;11.25;;;6.68;;
47153;SDS011;32907;41.412;2.164;2024-02-04T08:11:58;9.43;;;6.13;;
47153;SDS011;32907;41.412;2.164;2024-02-04T08:14:26;10.95;;;6.65;;
47153;SDS011;32907;41.412;2.164;2024-02-04T08:16:54;9.95;;;6.25;;
47153;SDS011;32907;41.412;2.164;2024-02-04T08:19:23;11.10;;;6.15;;
47153;SDS011;32907;41.412;2.164;2024-02-04T08:21:51;10.40;;;6.38;;
47153;SDS011;32907;41.412;2.164;2024-02-04T08:24:19;11.43;;;8.18;;
47153;SDS011;32907;41.412;2.164;2024-02-04T08:26:48;19.27;;;10.32;;
47153;SDS011;32907;41.412;2.164;2024-02-04T08:29:16;15.23;;;10.48;;
47153;SDS011;32907;41.412;2.164;2024-02-04T08:31:44;19.33;;;9.57;;
47153;SDS011;32907;41.412;2.164;2024-02-04T08:34:12;22.10;;;9.43;;
47153;SDS011;32907;41.412;2.164;2024-02-04T08:36:41;16.80;;;9.35;;
47153;SDS011;32907;41.412;2.164;2024-02-04T08:39:09;21.95;;;8.90;;
47153;SDS011;32907;41.412;2.164;2024-02-04T08:41:38;14.52;;;8.93;;
47153;SDS011;32907;41.412;2.164;2024-02-04T08:44:06;21.75;;;9.65;;
47153;SDS011;32907;41.412;2.164;2024-02-04T08:46:37;15.45;;;8.25;;
47153;SDS011;32907;41.412;2.164;2024-02-04T08:49:05;14.73;;;7.97;;
47153;SDS011;32907;41.412;2.164;2024-02-04T08:51:33;15.63;;;8.93;;
47153;SDS011;32907;41.412;2.164;2024-02-04T08:54:02;15.50;;;7.82;;
47153;SDS011;32907;41.412;2.164;2024-02-04T08:56:30;15.35;;;8.75;;
47153;SDS011;32907;41.412;2.164;2024-02-04T08:58:58;13.90;;;8.23;;
47153;SDS011;32907;41.412;2.164;2024-02-04T09:01:29;17.95;;;9.20;;
47153;SDS011;32907;41.412;2.164;2024-02-04T09:03:57;17.17;;;9.60;;
47153;SDS011;32907;41.412;2.164;2024-02-04T09:06:27;14.20;;;8.45;;
47153;SDS011;32907;41.412;2.164;2024-02-04T09:08:55;13.55;;;8.30;;
47153;SDS011;32907;41.412;2.164;2024-02-04T09:11:24;12.63;;;7.63;;
47153;SDS011;32907;41.412;2.164;2024-02-04T09:13:52;15.18;;;8.38;;
47153;SDS011;32907;41.412;2.164;2024-02-04T09:16:21;12.65;;;9.07;;
47153;SDS011;32907;41.412;2.164;2024-02-04T09:18:49;17.05;;;9.95;;
47153;SDS011;32907;41.412;2.164;2024-02-04T09:21:18;13.85;;;8.73;;
47153;SDS011;32907;41.412;2.164;2024-02-04T09:23:46;13.82;;;9.15;;
47153;SDS011;32907;41.412;2.164;2024-02-04T09:26:14;16.40;;;8.95;;
47153;SDS011;32907;41.412;2.164;2024-02-04T09:28:46;15.27;;;8.82;;
47153;SDS011;32907;41.412;2.164;2024-02-04T09:31:14;13.73;;;8.70;;
47153;SDS011;32907;41.412;2.164;2024-02-04T09:33:44;13.05;;;8.77;;
47153;SDS011;32907;41.412;2.164;2024-02-04T09:36:12;13.45;;;8.98;;
47153;SDS011;32907;41.412;2.164;2024-02-04T09:38:41;12.45;;;8.10;;
47153;SDS011;32907;41.412;2.164;2024-02-04T09:41:09;13.48;;;9.07;;
47153;SDS011;32907;41.412;2.164;2024-02-04T09:43:38;13.60;;;8.68;;
47153;SDS011;32907;41.412;2.164;2024-02-04T09:46:07;13.05;;;8.75;;
47153;SDS011;32907;41.412;2.164;2024-02-04T09:48:36;12.65;;;8.35;;
47153;SDS011;32907;41.412;2.164;2024-02-04T09:51:07;12.57;;;9.30;;
47153;SDS011;32907;41.412;2.164;2024-02-04T09:53:36;14.38;;;9.25;;
47153;SDS011;32907;41.412;2.164;2024-02-04T09:56:11;16.02;;;10.23;;
47153;SDS011;32907;41.412;2.164;2024-02-04T09:58:43;12.65;;;9.02;;
47153;SDS011;32907;41.412;2.164;2024-02-04T10:01:12;13.48;;;9.30;;
47153;SDS011;32907;41.412;2.164;2024-02-04T10:03:43;12.70;;;8.82;;
47153;SDS011;32907;41.412;2.164;2024-02-04T10:06:12;15.10;;;8.85;;
47153;SDS011;32907;41.412;2.164;2024-02-04T10:08:40;13.05;;;8.32;;
47153;SDS011;32907;41.412;2.164;2024-02-04T10:11:10;12.07;;;7.38;;
47153;SDS011;32907;41.412;2.164;2024-02-04T10:13:44;11.70;;;8.63;;
47153;SDS011;32907;41.412;2.164;2024-02-04T10:16:15;11.82;;;8.13;;
47153;SDS011;32907;41.412;2.164;2024-02-04T10:18:44;10.77;;;8.68;;
47153;SDS011;32907;41.412;2.164;2024-02-04T10:21:23;12.60;;;8.60;;
47153;SDS011;32907;41.412;2.164;2024-02-04T10:23:52;10.02;;;7.25;;
47153;SDS011;32907;41.412;2.164;2024-02-04T10:26:21;11.20;;;8.60;;
47153;SDS011;32907;41.412;2.164;2024-02-04T10:28:49;9.90;;;7.55;;
47153;SDS011;32907;41.412;2.164;2024-02-04T10:31:18;13.48;;;8.52;;
47153;SDS011;32907;41.412;2.164;2024-02-04T10:33:46;13.18;;;8.68;;
47153;SDS011;32907;41.412;2.164;2024-02-04T10:36:14;13.73;;;10.10;;
47153;SDS011;32907;41.412;2.164;2024-02-04T10:38:42;15.70;;;11.18;;
47153;SDS011;32907;41.412;2.164;2024-02-04T10:41:13;16.30;;;10.98;;
47153;SDS011;32907;41.412;2.164;2024-02-04T10:43:43;15.13;;;9.80;;
47153;SDS011;32907;41.412;2.164;2024-02-04T10:46:13;14.00;;;9.32;;
47153;SDS011;32907;41.412;2.164;2024-02-04T10:48:48;12.60;;;9.43;;
47153;SDS011;32907;41.412;2.164;2024-02-04T10:51:25;16.00;;;9.63;;
47153;SDS011;32907;41.412;2.164;2024-02-04T10:53:55;11.45;;;8.45;;
47153;SDS011;32907;41.412;2.164;2024-02-04T11:24:09;6.93;;;3.85;;
47153;SDS011;32907;41.412;2.164;2024-02-04T11:26:43;7.28;;;3.38;;
47153;SDS011;32907;41.412;2.164;2024-02-04T11:29:12;6.90;;;3.38;;
47153;SDS011;32907;41.412;2.164;2024-02-04T11:31:40;7.70;;;3.95;;
47153;SDS011;32907;41.412;2.164;2024-02-04T11:34:09;7.82;;;3.42;;
47153;SDS011;32907;41.412;2.164;2024-02-04T11:36:39;6.03;;;3.30;;
47153;SDS011;32907;41.412;2.164;2024-02-04T11:39:17;9.13;;;4.00;;
47153;SDS011;32907;41.412;2.164;2024-02-04T11:41:51;15.52;;;7.32;;
47153;SDS011;32907;41.412;2.164;2024-02-04T11:44:20;12.43;;;8.55;;
47153;SDS011;32907;41.412;2.164;2024-02-04T11:46:50;20.45;;;9.68;;
47153;SDS011;32907;41.412;2.164;2024-02-04T11:49:19;14.18;;;9.68;;
47153;SDS011;32907;41.412;2.164;2024-02-04T11:51:53;15.30;;;9.45;;
47153;SDS011;32907;41.412;2.164;2024-02-04T11:54:21;13.57;;;8.95;;
47153;SDS011;32907;41.412;2.164;2024-02-04T11:56:50;10.70;;;8.40;;
47153;SDS011;32907;41.412;2.164;2024-02-04T11:59:22;10.48;;;7.20;;
47153;SDS011;32907;41.412;2.164;2024-02-04T12:01:56;12.70;;;6.85;;
47153;SDS011;32907;41.412;2.164;2024-02-04T12:04:27;9.30;;;6.63;;
47153;SDS011;32907;41.412;2.164;2024-02-04T12:06:57;12.75;;;6.85;;
47153;SDS011;32907;41.412;2.164;2024-02-04T12:09:26;11.32;;;6.80;;
47153;SDS011;32907;41.412;2.164;2024-02-04T12:11:54;16.33;;;7.30;;
47153;SDS011;32907;41.412;2.164;2024-02-04T12:14:23;10.70;;;7.38;;
47153;SDS011;32907;41.412;2.164;2024-02-04T12:16:51;10.93;;;6.35;;
47153;SDS011;32907;41.412;2.164;2024-02-04T12:19:19;9.88;;;6.45;;
47153;SDS011;32907;41.412;2.164;2024-02-04T12:21:48;10.95;;;6.60;;
47153;SDS011;32907;41.412;2.164;2024-02-04T12:24:16;10.20;;;6.68;;
47153;SDS011;32907;41.412;2.164;2024-02-04T12:26:44;10.18;;;6.50;;
47153;SDS011;32907;41.412;2.164;2024-02-04T12:29:14;9.18;;;6.03;;
47153;SDS011;32907;41.412;2.164;2024-02-04T12:31:43;9.82;;;6.00;;
47153;SDS011;32907;41.412;2.164;2024-02-04T12:34:13;11.25;;;5.55;;
47153;SDS011;32907;41.412;2.164;2024-02-04T12:36:42;11.52;;;6.07;;
47153;SDS011;32907;41.412;2.164;2024-02-04T12:39:15;10.68;;;5.60;;
47153;SDS011;32907;41.412;2.164;2024-02-04T12:41:50;10.40;;;5.43;;
47153;SDS011;32907;41.412;2.164;2024-02-04T12:44:19;9.65;;;5.68;;
47153;SDS011;32907;41.412;2.164;2024-02-04T12:46:54;11.90;;;5.45;;
47153;SDS011;32907;41.412;2.164;2024-02-04T12:49:22;14.00;;;5.25;;
47153;SDS011;32907;41.412;2.164;2024-02-04T12:51:51;11.73;;;5.53;;
47153;SDS011;32907;41.412;2.164;2024-02-04T12:54:23;7.68;;;5.43;;
47153;SDS011;32907;41.412;2.164;2024-02-04T12:56:52;8.32;;;5.18;;
47153;SDS011;32907;41.412;2.164;2024-02-04T13:02:00;8.73;;;5.30;;
47153;SDS011;32907;41.412;2.164;2024-02-04T13:04:35;9.48;;;5.45;;
47153;SDS011;32907;41.412;2.164;2024-02-04T13:07:09;9.25;;;5.75;;
47153;SDS011;32907;41.412;2.164;2024-02-04T13:09:45;11.63;;;7.10;;
47153;SDS011;32907;41.412;2.164;2024-02-04T13:12:14;9.52;;;6.32;;
47153;SDS011;32907;41.412;2.164;2024-02-04T13:14:43;11.88;;;6.70;;
